Time;durP1;ratioP1;P1;durP2;ratioP2;P2;SDS_P1;SDS_P2;PMS_P1;PMS_P2;Temp;Humidity;BMP_temperature;BMP_pressure;BME280_temperature;BME280_humidity;BME280_pressure;Samples;Min_cycle;Max_cycle;Signal;HPM_P1;HPM_P2
2023/11/07 00:01:23;;;;;;;1.40;0.80;;;22.00;98.90;;;;;;5085972;28;20470;-60
2023/11/07 00:03:50;;;;;;;1.00;0.80;;;22.00;98.90;;;;;;5083042;28;20462;-61
2023/11/07 00:06:18;;;;;;;1.03;0.77;;;22.00;99.00;;;;;;5079963;28;20491;-61
2023/11/07 00:08:45;;;;;;;0.90;0.60;;;22.00;98.80;;;;;;5086084;28;20482;-61
2023/11/07 00:11:12;;;;;;;1.00;0.70;;;21.90;98.80;;;;;;5083087;28;20466;-61
2023/11/07 00:13:40;;;;;;;1.07;0.80;;;21.90;98.80;;;;;;5083825;28;20455;-61
2023/11/07 00:16:09;;;;;;;1.13;0.90;;;21.90;99.40;;;;;;5086594;28;20961;-61
2023/11/07 00:18:36;;;;;;;1.93;1.00;;;21.90;99.50;;;;;;5083089;28;20450;-61
2023/11/07 00:21:03;;;;;;;1.47;0.80;;;21.90;99.60;;;;;;5078592;27;20462;-60
2023/11/07 00:23:31;;;;;;;1.00;0.70;;;21.80;99.60;;;;;;5077974;28;20455;-61
2023/11/07 00:25:58;;;;;;;1.30;0.80;;;21.90;99.70;;;;;;5084283;27;20551;-59
2023/11/07 00:28:25;;;;;;;1.47;0.90;;;21.70;99.50;;;;;;5084522;28;20477;-60
2023/11/07 00:30:52;;;;;;;1.50;0.77;;;21.80;99.40;;;;;;5083082;28;20462;-61
2023/11/07 00:33:19;;;;;;;0.80;0.60;;;21.70;98.80;;;;;;5087122;28;20504;-60
2023/11/07 00:35:46;;;;;;;1.63;0.90;;;21.70;99.00;;;;;;5086571;28;20569;-61
2023/11/07 00:38:13;;;;;;;1.40;0.83;;;21.80;98.90;;;;;;5084263;28;20458;-61
2023/11/07 00:40:41;;;;;;;1.07;0.80;;;21.80;99.00;;;;;;5083673;28;20960;-61
2023/11/07 00:43:08;;;;;;;1.10;0.80;;;21.70;98.90;;;;;;5083729;28;21037;-61
2023/11/07 00:45:34;;;;;;;1.10;0.80;;;21.70;98.90;;;;;;5085001;28;20455;-61
2023/11/07 00:48:01;;;;;;;1.33;0.80;;;21.70;98.70;;;;;;5087118;28;20467;-61
2023/11/07 00:50:28;;;;;;;1.07;0.80;;;21.60;98.60;;;;;;5082093;28;20455;-61
2023/11/07 00:52:54;;;;;;;1.13;0.77;;;21.70;98.60;;;;;;5080810;28;20466;-61
2023/11/07 00:55:21;;;;;;;1.07;0.70;;;21.60;98.40;;;;;;5083229;28;20466;-61
2023/11/07 00:57:49;;;;;;;1.00;0.77;;;21.60;98.60;;;;;;5083363;28;20906;-61
2023/11/07 01:00:17;;;;;;;1.50;0.73;;;21.60;98.40;;;;;;5082355;28;20713;-61
2023/11/07 01:02:43;;;;;;;1.40;0.80;;;21.60;98.50;;;;;;5089941;28;20457;-61
2023/11/07 01:05:10;;;;;;;1.25;0.88;;;21.50;98.10;;;;;;5091159;28;20454;-61
2023/11/07 01:07:37;;;;;;;1.30;0.90;;;21.60;98.30;;;;;;5082002;28;20217;-61
2023/11/07 01:10:06;;;;;;;1.70;0.87;;;21.60;98.20;;;;;;5080476;28;20483;-61
2023/11/07 01:12:33;;;;;;;1.10;0.70;;;21.50;98.10;;;;;;5075904;28;20460;-61
2023/11/07 01:15:03;;;;;;;1.87;0.73;;;21.40;97.80;;;;;;5079372;28;20464;-61
2023/11/07 01:17:29;;;;;;;1.40;1.07;;;21.50;97.60;;;;;;5078116;28;20545;-61
2023/11/07 01:19:56;;;;;;;2.97;1.17;;;21.50;97.50;;;;;;5078625;27;20467;-61
2023/11/07 01:22:23;;;;;;;1.50;1.00;;;21.40;97.40;;;;;;5080208;28;20456;-61
2023/11/07 01:24:50;;;;;;;1.20;0.80;;;21.50;97.20;;;;;;5080372;28;20460;-61
2023/11/07 01:27:16;;;;;;;2.57;1.10;;;21.40;97.40;;;;;;5081830;28;20948;-61
2023/11/07 01:29:43;;;;;;;0.90;0.70;;;21.40;97.20;;;;;;5078745;28;20459;-61
2023/11/07 01:32:11;;;;;;;1.33;0.90;;;21.40;97.30;;;;;;5079481;28;20455;-61
2023/11/07 01:34:38;;;;;;;1.23;0.80;;;21.40;97.30;;;;;;5083503;28;20501;-61
2023/11/07 01:37:05;;;;;;;1.23;0.70;;;21.50;97.50;;;;;;5085167;28;20451;-61
2023/11/07 01:39:32;;;;;;;1.00;0.80;;;21.40;97.20;;;;;;5082906;28;20463;-61
2023/11/07 01:41:59;;;;;;;1.00;0.70;;;21.40;97.40;;;;;;5083203;28;22698;-61
2023/11/07 01:44:28;;;;;;;1.10;0.90;;;21.30;97.40;;;;;;5083187;28;20459;-61
2023/11/07 01:46:56;;;;;;;1.00;0.70;;;21.30;97.40;;;;;;5082406;28;20554;-60
2023/11/07 01:49:25;;;;;;;1.70;0.70;;;21.40;97.50;;;;;;5081639;28;20485;-61
2023/11/07 01:51:55;;;;;;;0.90;0.70;;;21.40;97.40;;;;;;5084415;28;20459;-61
2023/11/07 01:54:26;;;;;;;1.23;0.68;;;21.30;97.40;;;;;;5082571;28;20194;-60
2023/11/07 01:56:53;;;;;;;0.90;0.70;;;21.30;97.40;;;;;;5084621;28;20656;-61
2023/11/07 01:59:20;;;;;;;0.90;0.70;;;21.30;97.60;;;;;;5084861;28;20197;-60
2023/11/07 02:01:51;;;;;;;1.05;0.90;;;21.20;97.50;;;;;;5085862;28;20193;-61
2023/11/07 02:04:18;;;;;;;1.13;0.90;;;21.30;97.50;;;;;;5086041;22;20716;-70
2023/11/07 02:06:47;;;;;;;1.30;0.70;;;21.20;97.50;;;;;;5060878;28;20453;-69
2023/11/07 02:09:14;;;;;;;1.37;0.80;;;21.20;97.60;;;;;;5069959;28;20217;-71
2023/11/07 02:11:40;;;;;;;1.00;0.80;;;21.30;97.70;;;;;;5069060;28;20455;-69
2023/11/07 02:14:08;;;;;;;1.00;0.70;;;21.30;97.50;;;;;;5067165;28;20198;-68
2023/11/07 02:16:35;;;;;;;1.20;0.80;;;21.30;97.70;;;;;;5064297;28;20460;-67
2023/11/07 02:19:02;;;;;;;1.25;0.80;;;21.20;97.70;;;;;;5064928;28;20465;-69
2023/11/07 02:21:30;;;;;;;1.23;0.90;;;21.10;97.80;;;;;;5062003;28;20201;-71
2023/11/07 02:23:58;;;;;;;1.48;0.90;;;21.10;97.80;;;;;;5068826;28;20458;-66
2023/11/07 02:26:25;;;;;;;1.00;0.70;;;21.10;97.70;;;;;;5066052;28;20579;-68
2023/11/07 02:28:53;;;;;;;0.90;0.70;;;21.20;97.80;;;;;;5064416;28;20479;-69
2023/11/07 02:31:19;;;;;;;1.43;0.83;;;21.10;97.90;;;;;;5066646;28;20463;-68
2023/11/07 02:33:46;;;;;;;1.47;0.80;;;21.00;97.80;;;;;;5065773;28;20824;-70
2023/11/07 02:36:13;;;;;;;1.40;0.70;;;21.10;97.80;;;;;;5066464;28;20479;-69
2023/11/07 02:38:40;;;;;;;1.00;0.70;;;21.00;97.80;;;;;;5068027;28;20915;-62
2023/11/07 02:41:08;;;;;;;1.40;0.90;;;21.00;97.90;;;;;;5067528;28;20451;-67
2023/11/07 02:43:35;;;;;;;1.03;0.80;;;21.10;97.90;;;;;;5071238;28;20209;-67
2023/11/07 02:46:02;;;;;;;1.00;0.70;;;21.00;98.00;;;;;;5065789;28;21241;-62
2023/11/07 02:48:28;;;;;;;1.10;0.70;;;21.00;98.10;;;;;;5069580;28;20197;-68
2023/11/07 02:50:56;;;;;;;0.90;0.70;;;21.00;98.30;;;;;;5060337;28;20460;-70
2023/11/07 02:53:22;;;;;;;1.35;0.70;;;21.00;98.30;;;;;;5067193;28;20541;-68
2023/11/07 02:55:49;;;;;;;1.10;0.80;;;21.10;98.50;;;;;;5061005;28;20206;-70
2023/11/07 02:58:17;;;;;;;1.20;0.90;;;21.00;98.20;;;;;;5065198;28;20451;-63
2023/11/07 03:00:44;;;;;;;1.30;1.00;;;21.00;98.70;;;;;;5065457;28;20202;-66
2023/11/07 03:03:11;;;;;;;1.13;0.75;;;20.90;98.30;;;;;;5063937;28;20230;-67
2023/11/07 03:05:38;;;;;;;1.00;0.80;;;21.00;98.40;;;;;;5064876;28;20194;-69
2023/11/07 03:08:06;;;;;;;1.00;0.70;;;20.90;98.20;;;;;;5061620;28;20190;-70
2023/11/07 03:10:33;;;;;;;1.00;0.70;;;20.90;98.10;;;;;;5064142;28;20288;-70
2023/11/07 03:13:02;;;;;;;1.15;0.70;;;21.00;98.20;;;;;;5067057;28;20201;-66
2023/11/07 03:15:30;;;;;;;1.23;0.87;;;20.90;98.20;;;;;;5066806;28;20765;-70
2023/11/07 03:17:57;;;;;;;1.00;0.70;;;20.90;98.00;;;;;;5065635;28;21260;-71
2023/11/07 03:20:24;;;;;;;1.33;0.80;;;20.80;98.20;;;;;;5064962;28;20232;-66
2023/11/07 03:22:50;;;;;;;1.50;0.90;;;20.90;98.10;;;;;;5064192;28;20464;-70
2023/11/07 03:25:18;;;;;;;1.00;0.70;;;20.90;98.20;;;;;;5064173;28;20198;-70
2023/11/07 03:27:44;;;;;;;1.53;0.70;;;20.90;97.30;;;;;;5065038;28;20198;-69
2023/11/07 03:30:12;;;;;;;0.90;0.70;;;20.80;97.20;;;;;;5063792;28;20476;-68
2023/11/07 03:32:41;;;;;;;0.90;0.60;;;20.80;97.00;;;;;;5066880;28;20200;-70
2023/11/07 03:35:08;;;;;;;1.10;0.80;;;20.80;97.10;;;;;;5062705;28;20475;-67
2023/11/07 03:37:35;;;;;;;1.00;0.70;;;20.80;97.20;;;;;;5065885;28;20202;-70
2023/11/07 03:40:03;;;;;;;1.15;0.85;;;20.80;97.10;;;;;;5067020;28;20464;-65
2023/11/07 03:42:30;;;;;;;0.90;0.70;;;20.80;97.10;;;;;;5065174;28;20195;-65
2023/11/07 03:44:56;;;;;;;1.00;0.70;;;20.80;97.20;;;;;;5052055;28;20198;-65
2023/11/07 03:47:23;;;;;;;1.20;1.00;;;20.80;97.30;;;;;;5059642;28;20553;-65
2023/11/07 03:49:51;;;;;;;1.05;0.70;;;20.80;97.20;;;;;;5060126;28;20220;-64
2023/11/07 03:52:18;;;;;;;1.40;1.00;;;20.80;97.30;;;;;;5068700;28;20526;-69
2023/11/07 03:54:45;;;;;;;1.60;0.87;;;20.70;97.20;;;;;;5062854;28;20202;-70
2023/11/07 03:57:12;;;;;;;0.90;0.70;;;20.70;97.30;;;;;;5066526;28;20457;-69
2023/11/07 03:59:38;;;;;;;0.90;0.60;;;20.70;97.20;;;;;;5064272;28;20196;-62
2023/11/07 04:02:05;;;;;;;1.00;0.70;;;20.70;97.20;;;;;;5064935;28;20654;-69
2023/11/07 04:04:32;;;;;;;1.10;0.80;;;20.70;97.40;;;;;;5066165;28;20471;-68
2023/11/07 04:07:00;;;;;;;1.88;0.70;;;20.70;97.20;;;;;;5065048;28;20209;-68
2023/11/07 04:09:27;;;;;;;1.10;0.80;;;20.70;97.30;;;;;;5068812;28;20737;-63
2023/11/07 04:11:53;;;;;;;1.52;0.70;;;20.70;97.50;;;;;;5067845;28;20605;-68
2023/11/07 04:14:21;;;;;;;1.05;0.70;;;20.70;97.40;;;;;;5064869;28;20209;-66
2023/11/07 04:16:48;;;;;;;4.15;0.80;;;20.70;97.50;;;;;;5060312;28;20204;-69
2023/11/07 04:19:15;;;;;;;0.90;0.68;;;20.70;97.40;;;;;;5065052;28;20198;-68
2023/11/07 04:21:42;;;;;;;1.35;1.15;;;20.60;97.40;;;;;;5068662;28;20194;-70
2023/11/07 04:24:12;;;;;;;1.00;0.80;;;20.60;97.50;;;;;;5066086;28;20198;-67
2023/11/07 04:26:40;;;;;;;1.15;0.75;;;20.60;97.50;;;;;;5067688;28;20202;-65
2023/11/07 04:29:07;;;;;;;1.05;0.85;;;20.60;97.50;;;;;;5064147;28;20203;-64
2023/11/07 04:31:34;;;;;;;1.00;0.70;;;20.60;97.50;;;;;;5067447;28;20198;-63
2023/11/07 04:34:00;;;;;;;1.10;0.70;;;20.70;97.70;;;;;;5062855;28;20197;-66
2023/11/07 04:36:27;;;;;;;0.90;0.70;;;20.60;97.50;;;;;;5065044;28;20493;-68
2023/11/07 04:38:54;;;;;;;1.10;0.70;;;20.60;97.60;;;;;;5071918;28;20198;-68
2023/11/07 04:41:22;;;;;;;1.30;0.70;;;20.60;97.60;;;;;;5070676;28;20581;-68
2023/11/07 04:43:49;;;;;;;1.10;0.77;;;20.60;97.50;;;;;;5061980;28;20202;-66
2023/11/07 04:46:17;;;;;;;0.90;0.65;;;20.60;97.40;;;;;;5066055;28;20580;-70
2023/11/07 04:48:44;;;;;;;1.02;0.70;;;20.60;97.50;;;;;;5065562;28;20201;-65
2023/11/07 04:51:11;;;;;;;1.13;0.60;;;20.50;97.50;;;;;;5063389;28;20214;-70
2023/11/07 04:53:37;;;;;;;1.98;0.88;;;20.60;97.60;;;;;;5066797;28;20198;-70
2023/11/07 04:56:05;;;;;;;0.90;0.60;;;20.60;97.50;;;;;;5062799;28;21123;-68
2023/11/07 04:58:33;;;;;;;1.00;0.77;;;20.50;97.60;;;;;;5065512;28;20282;-70
2023/11/07 05:01:01;;;;;;;1.63;0.70;;;20.60;97.50;;;;;;5064744;28;20198;-69
2023/11/07 05:03:31;;;;;;;1.15;0.82;;;20.50;97.50;;;;;;5061833;28;20205;-67
2023/11/07 05:05:58;;;;;;;1.10;0.80;;;20.60;97.50;;;;;;5062771;28;20194;-71
2023/11/07 05:08:25;;;;;;;1.20;0.90;;;20.50;97.40;;;;;;5062978;28;20756;-68
2023/11/07 05:10:52;;;;;;;1.23;0.90;;;20.50;97.30;;;;;;5066313;28;20311;-69
2023/11/07 05:13:18;;;;;;;1.05;0.70;;;20.50;97.20;;;;;;5066693;28;20529;-66
2023/11/07 05:15:46;;;;;;;1.65;0.98;;;20.50;97.20;;;;;;5063014;28;20206;-68
2023/11/07 05:18:14;;;;;;;1.00;0.70;;;20.50;97.20;;;;;;5063333;28;20650;-70
2023/11/07 05:20:42;;;;;;;4.10;1.23;;;20.50;97.20;;;;;;5060774;28;20201;-70
2023/11/07 05:23:09;;;;;;;1.10;0.73;;;20.50;97.20;;;;;;5060811;28;20672;-65
2023/11/07 05:25:36;;;;;;;1.20;0.80;;;20.60;97.10;;;;;;5058912;28;20275;-67
2023/11/07 05:28:04;;;;;;;1.20;0.70;;;20.40;97.00;;;;;;5058831;28;20329;-67
2023/11/07 05:30:31;;;;;;;0.95;0.70;;;20.50;97.10;;;;;;5062919;28;20566;-66
2023/11/07 05:32:59;;;;;;;0.90;0.60;;;20.50;97.00;;;;;;5061558;28;20199;-69
2023/11/07 05:35:26;;;;;;;0.90;0.70;;;20.40;96.90;;;;;;5061436;28;20602;-69
2023/11/07 05:37:54;;;;;;;2.00;1.05;;;20.50;97.00;;;;;;5062491;28;20205;-71
2023/11/07 05:40:23;;;;;;;1.10;0.80;;;20.50;96.90;;;;;;5067995;28;20202;-69
2023/11/07 05:42:50;;;;;;;1.10;0.80;;;20.40;96.90;;;;;;5065812;28;20698;-70
2023/11/07 05:45:17;;;;;;;1.10;0.70;;;20.40;96.90;;;;;;5062596;28;20260;-67
2023/11/07 05:47:44;;;;;;;1.10;0.80;;;20.40;96.90;;;;;;5067937;28;20205;-69
2023/11/07 05:50:12;;;;;;;0.90;0.65;;;20.40;97.00;;;;;;5067810;28;20214;-65
2023/11/07 05:52:39;;;;;;;1.65;0.90;;;20.40;96.90;;;;;;5066302;28;20575;-68
2023/11/07 05:55:08;;;;;;;1.10;0.75;;;20.40;96.90;;;;;;5062941;28;20193;-63
2023/11/07 05:57:35;;;;;;;0.98;0.70;;;20.40;96.90;;;;;;5067738;28;20277;-71
2023/11/07 06:00:06;;;;;;;1.23;0.80;;;20.40;97.00;;;;;;5071376;28;20205;-64
2023/11/07 06:02:32;;;;;;;1.00;0.80;;;20.40;97.10;;;;;;5070948;28;20604;-70
2023/11/07 06:04:59;;;;;;;0.90;0.60;;;20.30;96.90;;;;;;5067002;28;20213;-67
2023/11/07 06:07:28;;;;;;;1.20;0.70;;;20.40;97.00;;;;;;5063810;28;20217;-69
2023/11/07 06:09:55;;;;;;;0.90;0.70;;;20.40;97.10;;;;;;5064480;28;20221;-64
2023/11/07 06:12:21;;;;;;;0.90;0.68;;;20.30;97.00;;;;;;5062994;28;20741;-65
2023/11/07 06:14:48;;;;;;;0.88;0.60;;;20.30;97.00;;;;;;5060593;28;20195;-67
2023/11/07 06:17:17;;;;;;;1.00;0.70;;;20.40;96.90;;;;;;5062240;28;20201;-69
2023/11/07 06:19:44;;;;;;;1.00;0.70;;;20.40;96.70;;;;;;5066446;28;20248;-68
2023/11/07 06:22:11;;;;;;;1.02;0.73;;;20.40;97.10;;;;;;5067051;28;20219;-65
2023/11/07 06:24:39;;;;;;;0.90;0.70;;;20.40;96.60;;;;;;5064359;28;20218;-65
2023/11/07 06:27:07;;;;;;;1.25;0.90;;;20.40;96.70;;;;;;5060557;28;20897;-67
2023/11/07 06:29:34;;;;;;;1.15;0.77;;;20.40;96.70;;;;;;5067380;28;20302;-69
2023/11/07 06:32:00;;;;;;;1.10;0.75;;;20.40;96.70;;;;;;5060316;28;20198;-65
2023/11/07 06:34:27;;;;;;;0.90;0.63;;;20.40;96.70;;;;;;5058972;28;20205;-71
2023/11/07 06:36:54;;;;;;;1.20;0.70;;;20.40;96.70;;;;;;5058225;28;20490;-67
2023/11/07 06:39:23;;;;;;;1.45;0.90;;;20.40;97.00;;;;;;5061228;28;20186;-69
2023/11/07 06:41:53;;;;;;;1.75;0.77;;;20.30;96.70;;;;;;5060390;28;20669;-69
2023/11/07 06:44:20;;;;;;;0.90;0.70;;;20.40;96.80;;;;;;5060524;28;20264;-66
2023/11/07 06:46:49;;;;;;;1.00;0.77;;;20.40;96.80;;;;;;5057939;28;20209;-63
2023/11/07 06:49:16;;;;;;;1.02;0.70;;;20.30;96.80;;;;;;5056722;28;20414;-67
2023/11/07 06:51:42;;;;;;;1.10;0.77;;;20.30;96.60;;;;;;5060639;28;20230;-68
2023/11/07 06:54:09;;;;;;;1.15;0.95;;;20.30;96.70;;;;;;5058446;28;20213;-64
2023/11/07 06:56:37;;;;;;;1.20;1.05;;;20.30;96.80;;;;;;5065122;28;20534;-66
2023/11/07 06:59:05;;;;;;;0.90;0.70;;;20.30;96.80;;;;;;5063418;28;20302;-74
2023/11/07 07:01:32;;;;;;;0.90;0.70;;;20.30;96.80;;;;;;5057434;28;20209;-75
2023/11/07 07:03:59;;;;;;;1.00;0.80;;;20.30;96.80;;;;;;5061659;28;20206;-65
2023/11/07 07:06:25;;;;;;;1.10;0.73;;;20.30;96.80;;;;;;5061914;28;20281;-72
2023/11/07 07:08:52;;;;;;;1.05;0.75;;;20.30;96.80;;;;;;5065105;28;20195;-66
2023/11/07 07:11:19;;;;;;;0.95;0.65;;;20.30;96.80;;;;;;5062320;28;20217;-68
2023/11/07 07:13:46;;;;;;;1.02;0.75;;;20.30;97.10;;;;;;5067646;28;20202;-61
2023/11/07 07:16:16;;;;;;;0.90;0.68;;;20.30;96.90;;;;;;5061765;28;20669;-72
2023/11/07 07:18:44;;;;;;;1.00;0.70;;;20.30;97.00;;;;;;5061461;28;20194;-70
2023/11/07 07:21:12;;;;;;;0.95;0.65;;;20.30;97.00;;;;;;5062983;28;20675;-70
2023/11/07 07:23:42;;;;;;;0.90;0.60;;;20.20;96.90;;;;;;5068518;28;20222;-68
2023/11/07 07:26:09;;;;;;;1.10;0.75;;;20.20;97.00;;;;;;5066256;28;20206;-70
2023/11/07 07:28:38;;;;;;;1.20;0.70;;;20.20;97.00;;;;;;5066763;28;20197;-71
2023/11/07 07:31:06;;;;;;;1.00;0.70;;;20.30;97.10;;;;;;5059550;28;20221;-68
2023/11/07 07:33:35;;;;;;;1.60;0.80;;;20.30;97.10;;;;;;5064953;28;20183;-72
2023/11/07 07:36:04;;;;;;;1.00;0.80;;;20.30;97.20;;;;;;5066069;28;20222;-67
2023/11/07 07:38:31;;;;;;;1.00;0.70;;;20.30;97.20;;;;;;5070353;28;20643;-73
2023/11/07 07:40:59;;;;;;;1.00;0.60;;;20.30;97.50;;;;;;5063984;28;20210;-69
2023/11/07 07:43:27;;;;;;;1.63;0.73;;;20.30;97.60;;;;;;5067407;28;20210;-74
2023/11/07 07:45:53;;;;;;;1.10;0.60;;;20.40;97.70;;;;;;5059832;28;20205;-69
2023/11/07 07:48:20;;;;;;;1.08;0.65;;;20.40;97.60;;;;;;5062690;28;20216;-64
2023/11/07 07:50:48;;;;;;;3.78;0.80;;;20.40;97.90;;;;;;5060954;28;20220;-71
2023/11/07 07:53:15;;;;;;;1.00;0.70;;;20.40;98.00;;;;;;5066980;28;20194;-70
2023/11/07 07:55:43;;;;;;;1.00;0.80;;;20.40;98.00;;;;;;5069245;28;20204;-67
2023/11/07 07:58:11;;;;;;;1.00;0.70;;;20.40;97.90;;;;;;5070960;28;20191;-65
2023/11/07 08:00:38;;;;;;;1.00;0.70;;;20.40;97.90;;;;;;5067062;28;20287;-69
2023/11/07 08:03:06;;;;;;;1.55;0.75;;;20.40;98.50;;;;;;5060013;28;20591;-66
2023/11/07 08:05:33;;;;;;;1.38;0.82;;;20.40;98.30;;;;;;5064832;28;20285;-71
2023/11/07 08:08:01;;;;;;;1.17;0.80;;;20.40;98.10;;;;;;5064394;28;20193;-71
2023/11/07 08:10:28;;;;;;;0.98;0.70;;;20.40;98.40;;;;;;5064931;28;20227;-71
2023/11/07 08:12:56;;;;;;;1.30;0.73;;;20.40;98.20;;;;;;5062770;28;20221;-71
2023/11/07 08:15:25;;;;;;;2.20;0.90;;;20.40;98.40;;;;;;5061968;28;20191;-66
2023/11/07 08:17:51;;;;;;;1.00;0.70;;;20.40;98.40;;;;;;5058541;28;20278;-66
2023/11/07 08:20:20;;;;;;;0.80;0.60;;;20.40;98.80;;;;;;5061798;28;20803;-71
2023/11/07 08:22:48;;;;;;;2.65;0.95;;;20.40;98.40;;;;;;5064961;28;20198;-72
2023/11/07 08:25:18;;;;;;;2.80;0.77;;;20.40;98.30;;;;;;5065540;28;20547;-66
2023/11/07 08:27:45;;;;;;;1.10;0.80;;;20.50;98.30;;;;;;5062546;28;20532;-65
2023/11/07 08:30:14;;;;;;;1.00;0.80;;;20.50;98.30;;;;;;5063134;28;20312;-69
2023/11/07 08:32:42;;;;;;;1.00;0.60;;;20.50;98.40;;;;;;5062103;28;20823;-73
2023/11/07 08:35:10;;;;;;;1.00;0.70;;;20.50;98.50;;;;;;5061529;28;20199;-69
2023/11/07 08:37:36;;;;;;;0.90;0.60;;;20.50;98.40;;;;;;5062996;28;20581;-72
2023/11/07 08:40:06;;;;;;;0.90;0.70;;;20.50;98.50;;;;;;5062052;28;20194;-68
2023/11/07 08:42:34;;;;;;;0.90;0.60;;;20.50;98.50;;;;;;5062204;28;20202;-69
2023/11/07 08:45:01;;;;;;;1.00;0.80;;;20.50;98.50;;;;;;5061035;28;20186;-70
2023/11/07 08:47:28;;;;;;;1.48;0.68;;;20.60;98.50;;;;;;5062498;28;20186;-67
2023/11/07 08:49:57;;;;;;;1.33;0.70;;;20.60;98.50;;;;;;5059665;28;20193;-68
2023/11/07 08:52:24;;;;;;;1.83;1.00;;;20.60;98.60;;;;;;5062535;28;20261;-66
2023/11/07 08:54:51;;;;;;;1.00;0.70;;;20.60;98.70;;;;;;5062219;28;20468;-72
2023/11/07 08:57:18;;;;;;;0.98;0.70;;;20.60;98.60;;;;;;5062624;28;20664;-72
2023/11/07 08:59:46;;;;;;;1.00;0.70;;;20.60;98.60;;;;;;5062181;28;20707;-72
2023/11/07 09:02:13;;;;;;;0.90;0.70;;;20.60;98.60;;;;;;5059104;28;20558;-67
2023/11/07 09:04:39;;;;;;;1.10;0.90;;;20.60;98.60;;;;;;5061672;28;20214;-68
2023/11/07 09:07:07;;;;;;;1.10;0.75;;;20.60;98.70;;;;;;5060931;28;20205;-73
2023/11/07 09:09:34;;;;;;;1.00;0.75;;;20.60;98.80;;;;;;5063266;28;20301;-66
2023/11/07 09:12:01;;;;;;;1.33;0.80;;;20.60;98.60;;;;;;5058391;28;20226;-66
2023/11/07 09:14:27;;;;;;;0.90;0.60;;;20.60;98.50;;;;;;5058863;28;20282;-69
2023/11/07 09:16:55;;;;;;;1.10;0.80;;;20.70;98.60;;;;;;5058214;28;20453;-71
2023/11/07 09:19:22;;;;;;;1.30;0.80;;;20.70;98.70;;;;;;5062329;28;20974;-70
2023/11/07 09:21:49;;;;;;;1.88;0.70;;;20.70;98.60;;;;;;5059835;28;20216;-64
2023/11/07 09:24:16;;;;;;;2.55;0.80;;;20.70;98.60;;;;;;5057907;28;20206;-71
2023/11/07 09:26:43;;;;;;;1.45;0.88;;;20.90;98.60;;;;;;5058366;28;20194;-70
2023/11/07 09:29:10;;;;;;;1.80;0.83;;;20.80;98.90;;;;;;5055318;28;20969;-71
2023/11/07 09:31:37;;;;;;;1.10;0.80;;;20.80;98.70;;;;;;5053941;28;21240;-67
2023/11/07 09:34:08;;;;;;;3.00;0.90;;;20.80;98.40;;;;;;5061394;28;20191;-72
2023/11/07 09:36:36;;;;;;;1.57;0.73;;;20.80;98.30;;;;;;5063077;28;20457;-70
2023/11/07 09:39:05;;;;;;;1.10;0.70;;;20.80;98.30;;;;;;5059158;28;20453;-68
2023/11/07 09:41:32;;;;;;;1.85;0.95;;;20.80;98.20;;;;;;5062155;28;20200;-70
2023/11/07 09:44:03;;;;;;;1.30;0.73;;;20.80;98.20;;;;;;5058720;28;20228;-68
2023/11/07 09:46:31;;;;;;;2.08;0.95;;;20.80;98.10;;;;;;5060160;28;20213;-70
2023/11/07 09:48:58;;;;;;;1.10;0.70;;;20.80;98.10;;;;;;5064646;28;20698;-71
2023/11/07 09:51:27;;;;;;;1.52;0.82;;;20.90;98.10;;;;;;5057892;28;20825;-68
2023/11/07 09:53:56;;;;;;;2.10;0.73;;;20.80;98.00;;;;;;5047465;28;22491;-69
2023/11/07 09:56:25;;;;;;;1.33;0.70;;;20.90;98.00;;;;;;5053649;28;20194;-71
2023/11/07 09:58:54;;;;;;;2.40;0.70;;;20.80;97.90;;;;;;5058624;28;20455;-67
2023/11/07 10:01:21;;;;;;;2.20;1.13;;;20.80;97.80;;;;;;5060862;28;21097;-70
2023/11/07 10:03:49;;;;;;;1.00;0.77;;;20.80;97.80;;;;;;5065158;28;20451;-70
2023/11/07 10:06:17;;;;;;;1.30;0.90;;;20.90;97.80;;;;;;5060262;28;20547;-68
2023/11/07 10:08:45;;;;;;;1.97;0.90;;;20.80;97.70;;;;;;5063329;28;20935;-71
2023/11/07 10:11:14;;;;;;;1.27;0.77;;;20.80;98.00;;;;;;5062011;28;20487;-70
2023/11/07 10:14:00;;;;;;;1.43;0.80;;;20.90;97.70;;;;;;5062435;28;20824;-69
2023/11/07 10:16:37;;;;;;;1.10;0.87;;;20.90;97.60;;;;;;5062726;28;20459;-70
2023/11/07 10:19:04;;;;;;;1.10;0.83;;;20.90;97.60;;;;;;5063982;28;20436;-70
2023/11/07 10:21:32;;;;;;;2.40;0.73;;;20.90;97.50;;;;;;5061710;28;20525;-71
2023/11/07 10:24:00;;;;;;;2.05;0.70;;;20.90;97.50;;;;;;5061194;28;20491;-70
2023/11/07 10:26:27;;;;;;;2.90;0.77;;;20.80;97.40;;;;;;5060647;28;20340;-66
2023/11/07 10:29:05;;;;;;;1.03;0.70;;;20.90;97.30;;;;;;5064381;28;20197;-67
2023/11/07 10:31:41;;;;;;;1.70;0.77;;;20.90;96.80;;;;;;5065036;28;20486;-66
2023/11/07 10:34:16;;;;;;;2.67;0.87;;;20.80;96.70;;;;;;5069755;28;21143;-72
2023/11/07 10:36:44;;;;;;;9.55;1.42;;;20.80;96.80;;;;;;5059741;28;20944;-66
2023/11/07 10:39:17;;;;;;;6.53;1.00;;;20.90;97.10;;;;;;5069191;28;20194;-66
2023/11/07 10:41:45;;;;;;;7.35;1.00;;;20.90;97.10;;;;;;5073459;28;20456;-68
2023/11/07 10:44:23;;;;;;;1.67;1.20;;;20.90;97.20;;;;;;5068137;28;20204;-64
2023/11/07 10:46:51;;;;;;;6.28;1.00;;;21.00;97.40;;;;;;5062955;28;20546;-65
2023/11/07 10:49:19;;;;;;;1.90;0.90;;;20.90;97.50;;;;;;5069522;28;20500;-65
2023/11/07 10:51:45;;;;;;;3.17;0.90;;;21.00;97.60;;;;;;5068958;28;20484;-64
2023/11/07 10:54:13;;;;;;;4.07;1.30;;;21.00;97.70;;;;;;5064733;28;21054;-67
2023/11/07 10:56:44;;;;;;;2.23;0.80;;;21.00;97.80;;;;;;5064072;28;20547;-66
2023/11/07 10:59:14;;;;;;;2.08;1.05;;;21.10;97.90;;;;;;5068605;28;21025;-69
2023/11/07 11:01:45;;;;;;;2.80;1.20;;;21.10;98.00;;;;;;5067443;28;20305;-62
2023/11/07 11:04:13;;;;;;;6.80;1.13;;;21.20;98.10;;;;;;5068405;28;20815;-65
2023/11/07 11:06:42;;;;;;;3.90;1.17;;;21.20;98.10;;;;;;5062050;28;20463;-62
2023/11/07 11:09:11;;;;;;;8.60;1.63;;;21.30;98.30;;;;;;5061079;28;20460;-65
2023/11/07 11:11:39;;;;;;;6.20;1.00;;;21.30;98.30;;;;;;5060118;28;20856;-65
2023/11/07 11:14:08;;;;;;;2.20;0.90;;;21.30;98.40;;;;;;5061821;28;20490;-68
2023/11/07 11:16:37;;;;;;;3.80;1.00;;;21.40;98.40;;;;;;5057200;28;20840;-70
2023/11/07 11:19:14;;;;;;;2.23;0.93;;;21.40;98.40;;;;;;5056606;28;23275;-74
2023/11/07 11:21:51;;;;;;;1.30;0.80;;;21.40;98.40;;;;;;5062188;28;20493;-72
2023/11/07 11:24:28;;;;;;;1.50;0.90;;;21.40;98.40;;;;;;5062872;28;20963;-70
2023/11/07 11:27:06;;;;;;;2.60;0.90;;;21.50;98.40;;;;;;5055821;28;20458;-68
2023/11/07 11:29:34;;;;;;;2.23;0.80;;;21.50;98.30;;;;;;5060574;28;20459;-72
2023/11/07 11:32:24;;;;;;;2.20;1.10;;;21.50;98.30;;;;;;5056843;28;20479;-70
2023/11/07 11:34:57;;;;;;;2.43;0.83;;;21.50;98.20;;;;;;5060795;28;20463;-70
2023/11/07 11:37:24;;;;;;;1.43;0.90;;;21.60;98.20;;;;;;5059132;28;20447;-70
2023/11/07 11:39:52;;;;;;;1.30;0.93;;;21.60;98.10;;;;;;5064424;28;20482;-69
2023/11/07 11:42:19;;;;;;;1.20;0.83;;;21.60;98.10;;;;;;5062640;28;20471;-68
2023/11/07 11:45:22;;;;;;;2.00;1.10;;;21.60;98.00;;;;;;5063203;28;20960;-68
2023/11/07 11:47:52;;;;;;;1.83;1.00;;;21.70;98.00;;;;;;5054723;28;20463;-68
2023/11/07 11:50:19;;;;;;;1.50;0.90;;;21.70;97.90;;;;;;5061440;28;20487;-65
2023/11/07 11:52:46;;;;;;;1.30;0.90;;;21.70;97.90;;;;;;5064856;28;20483;-70
2023/11/07 11:55:15;;;;;;;3.03;0.90;;;21.70;97.80;;;;;;5069639;28;20463;-71
2023/11/07 11:58:14;;;;;;;1.23;0.80;;;21.70;97.80;;;;;;5070719;28;20479;-69
2023/11/07 12:00:45;;;;;;;1.13;0.80;;;21.80;97.70;;;;;;5020907;28;20456;-69
2023/11/07 12:03:15;;;;;;;1.23;0.77;;;21.80;97.70;;;;;;5065874;28;20546;-71
2023/11/07 12:05:42;;;;;;;0.90;0.70;;;21.80;97.60;;;;;;5060334;28;20460;-69
2023/11/07 12:08:35;;;;;;;3.73;1.20;;;21.80;97.60;;;;;;5063730;28;20710;-76
2023/11/07 12:11:02;;;;;;;1.50;1.00;;;21.80;97.50;;;;;;5066594;28;20464;-73
2023/11/07 12:13:31;;;;;;;1.10;0.70;;;21.90;97.70;;;;;;5062467;28;20494;-63
2023/11/07 12:16:13;;;;;;;1.20;0.73;;;21.90;97.70;;;;;;5061669;28;20461;-65
2023/11/07 12:18:40;;;;;;;1.20;0.93;;;21.90;97.70;;;;;;5061303;28;20475;-63
2023/11/07 12:21:07;;;;;;;1.40;0.80;;;22.00;97.80;;;;;;5065201;28;20956;-62
2023/11/07 12:23:34;;;;;;;1.80;0.70;;;22.00;97.70;;;;;;5064317;28;20467;-59
2023/11/07 12:26:00;;;;;;;2.10;0.87;;;22.00;97.70;;;;;;5062914;28;20478;-69
2023/11/07 12:28:27;;;;;;;2.83;1.07;;;22.00;97.70;;;;;;5061071;28;20943;-71
2023/11/07 12:30:55;;;;;;;1.50;0.97;;;22.00;97.80;;;;;;5057966;28;20456;-69
2023/11/07 12:33:23;;;;;;;1.53;0.87;;;22.00;97.60;;;;;;5060512;28;20479;-68
2023/11/07 12:35:56;;;;;;;3.27;0.90;;;22.00;97.60;;;;;;5060430;28;20843;-65
2023/11/07 12:38:24;;;;;;;1.70;1.10;;;22.00;97.50;;;;;;5059912;28;20444;-61
2023/11/07 12:40:51;;;;;;;1.80;1.10;;;22.10;97.60;;;;;;5065038;28;20474;-63
2023/11/07 12:43:18;;;;;;;1.20;1.00;;;22.10;97.60;;;;;;5064276;28;20467;-62
2023/11/07 12:45:46;;;;;;;3.20;1.00;;;22.10;97.60;;;;;;5063774;28;20455;-65
2023/11/07 12:48:13;;;;;;;1.70;0.93;;;22.10;97.40;;;;;;5066491;28;20543;-65
2023/11/07 12:50:51;;;;;;;2.70;0.90;;;22.10;97.30;;;;;;5065281;28;20471;-65
2023/11/07 12:53:19;;;;;;;3.53;1.10;;;22.10;97.30;;;;;;5062257;28;20853;-65